Página principal
METAR-TAF:

METAR-TAF

Aeroportos :

Samarcanda, Uzbequistão

latitude: 39-34N, longitude: 066-57E, altura: 724 m

Observação actual do tempo

O boletim foi feito há 31 minutos, às 13:00 UTC
Vento 6 kt de sudeste
Temperatura 3°C
Humidade 70%
Pressão 1024 hPa
Visibilidade: 6000 m

METAR: UTSS 161300Z 14006KT 6000 NSC 03/M02 Q1024 R09/70D NOSIG

Hora: 18:31 (13:31 UTC)

Previsão

O boletim foi feito há 2 horas e 29 minutos, às 11:02 UTC
Previsão válida de 16 às 12 UTC a 17 às 12 UTC
Vento 10 kt de sudeste
Visibilidade 10 km ou mais
Temporariamente
de 16 às 12 UTC a 16 às 18 UTC
Visibilidade: 3000 m
Nuvens dispersasa uma altura de 1000 ft
neblina

TAF: UTSS 161102Z 1612/1712 13010KT 9999 NSC TEMPO 1612/1618 3000 BR SCT010

Observações e previsões do tempo de mais de 4000 aeroportos (mensagens METAR e TAF).

As estações disponíveis são os pontos amarelos e vermelhos sobre o mapa.

Mova o rato sobre o mapa para ver o nome da estação.

Depois clique no ponto para visualizar as observações e previsões meteorológicas.

Para alterar o mapa : clique nos botões verdes com uma cruz preta para aumentar o zoom; no botão verde com uma pitada de zoom; ou nas setas verdes para mapas adjacentes.


METAR-TAF: